sensor_id;sensor_type;location;lat;lon;timestamp;temperature;humidity
41668;DHT22;27356;50.920;5.350;2024-01-11T00:01:36;-3.90;99.90
41668;DHT22;27356;50.920;5.350;2024-01-11T00:04:02;-4.00;99.90
41668;DHT22;27356;50.920;5.350;2024-01-11T00:06:27;-4.10;99.90
41668;DHT22;27356;50.920;5.350;2024-01-11T00:08:53;-3.90;99.90
41668;DHT22;27356;50.920;5.350;2024-01-11T00:11:19;-3.90;99.90
41668;DHT22;27356;50.920;5.350;2024-01-11T00:13:45;-3.80;99.90
41668;DHT22;27356;50.920;5.350;2024-01-11T00:16:11;-3.90;99.90
41668;DHT22;27356;50.920;5.350;2024-01-11T00:18:36;-3.70;99.90
41668;DHT22;27356;50.920;5.350;2024-01-11T00:21:02;-3.70;99.90
41668;DHT22;27356;50.920;5.350;2024-01-11T00:23:28;-3.70;99.90
41668;DHT22;27356;50.920;5.350;2024-01-11T00:25:54;-3.70;99.90
41668;DHT22;27356;50.920;5.350;2024-01-11T00:28:20;-3.80;99.90
41668;DHT22;27356;50.920;5.350;2024-01-11T00:30:46;-3.90;99.90
41668;DHT22;27356;50.920;5.350;2024-01-11T00:33:12;-3.80;99.90
41668;DHT22;27356;50.920;5.350;2024-01-11T00:35:38;-3.60;99.90
41668;DHT22;27356;50.920;5.350;2024-01-11T00:38:03;-3.60;99.90
41668;DHT22;27356;50.920;5.350;2024-01-11T00:40:29;-3.70;99.90
41668;DHT22;27356;50.920;5.350;2024-01-11T00:42:55;-3.70;99.90
41668;DHT22;27356;50.920;5.350;2024-01-11T00:45:21;-3.70;99.90
41668;DHT22;27356;50.920;5.350;2024-01-11T00:47:47;-3.70;99.90
41668;DHT22;27356;50.920;5.350;2024-01-11T00:50:12;-3.70;99.90
41668;DHT22;27356;50.920;5.350;2024-01-11T00:52:38;-3.60;99.90
41668;DHT22;27356;50.920;5.350;2024-01-11T00:55:04;-3.70;99.90
41668;DHT22;27356;50.920;5.350;2024-01-11T00:57:31;-3.80;99.90
41668;DHT22;27356;50.920;5.350;2024-01-11T00:59:56;-3.80;99.90
41668;DHT22;27356;50.920;5.350;2024-01-11T01:02:22;-3.70;99.90
41668;DHT22;27356;50.920;5.350;2024-01-11T01:04:48;-3.70;99.90
41668;DHT22;27356;50.920;5.350;2024-01-11T01:07:14;-3.90;99.90
41668;DHT22;27356;50.920;5.350;2024-01-11T01:09:39;-4.00;99.90
41668;DHT22;27356;50.920;5.350;2024-01-11T01:12:06;-4.20;99.90
41668;DHT22;27356;50.920;5.350;2024-01-11T01:14:32;-4.20;99.90
41668;DHT22;27356;50.920;5.350;2024-01-11T01:16:57;-4.30;99.90
41668;DHT22;27356;50.920;5.350;2024-01-11T01:19:23;-4.30;99.90
41668;DHT22;27356;50.920;5.350;2024-01-11T01:21:49;-4.30;99.90
41668;DHT22;27356;50.920;5.350;2024-01-11T01:24:15;-4.30;99.90
41668;DHT22;27356;50.920;5.350;2024-01-11T01:26:41;-4.30;99.90
41668;DHT22;27356;50.920;5.350;2024-01-11T01:29:07;-4.20;99.90
41668;DHT22;27356;50.920;5.350;2024-01-11T01:31:33;-4.10;99.90
41668;DHT22;27356;50.920;5.350;2024-01-11T01:34:03;-4.20;99.90
41668;DHT22;27356;50.920;5.350;2024-01-11T01:36:30;-4.30;99.90
41668;DHT22;27356;50.920;5.350;2024-01-11T01:38:56;-4.20;99.90
41668;DHT22;27356;50.920;5.350;2024-01-11T01:41:21;-4.20;99.90
41668;DHT22;27356;50.920;5.350;2024-01-11T01:43:47;-4.40;99.90
41668;DHT22;27356;50.920;5.350;2024-01-11T01:46:18;-4.50;99.90
41668;DHT22;27356;50.920;5.350;2024-01-11T01:48:45;-4.60;99.90
41668;DHT22;27356;50.920;5.350;2024-01-11T01:51:10;-4.60;99.90
41668;DHT22;27356;50.920;5.350;2024-01-11T01:53:37;-4.50;99.90
41668;DHT22;27356;50.920;5.350;2024-01-11T01:56:04;-4.70;99.90
41668;DHT22;27356;50.920;5.350;2024-01-11T01:58:30;-4.80;99.90
41668;DHT22;27356;50.920;5.350;2024-01-11T02:00:57;-4.80;99.90
41668;DHT22;27356;50.920;5.350;2024-01-11T02:03:24;-4.80;99.90
41668;DHT22;27356;50.920;5.350;2024-01-11T02:05:51;-4.70;99.90
41668;DHT22;27356;50.920;5.350;2024-01-11T02:08:20;-4.60;99.90
41668;DHT22;27356;50.920;5.350;2024-01-11T02:10:47;-4.60;99.90
41668;DHT22;27356;50.920;5.350;2024-01-11T02:13:13;-4.60;99.90
41668;DHT22;27356;50.920;5.350;2024-01-11T02:15:39;-4.50;99.90
41668;DHT22;27356;50.920;5.350;2024-01-11T02:18:05;-4.30;99.90
41668;DHT22;27356;50.920;5.350;2024-01-11T02:20:32;-4.30;99.90
41668;DHT22;27356;50.920;5.350;2024-01-11T02:23:03;-4.20;99.90
41668;DHT22;27356;50.920;5.350;2024-01-11T02:25:30;-4.30;99.90
41668;DHT22;27356;50.920;5.350;2024-01-11T02:27:56;-4.40;99.90
41668;DHT22;27356;50.920;5.350;2024-01-11T02:30:22;-4.50;99.90
41668;DHT22;27356;50.920;5.350;2024-01-11T02:32:49;-4.60;99.90
41668;DHT22;27356;50.920;5.350;2024-01-11T02:35:16;-4.50;99.90
41668;DHT22;27356;50.920;5.350;2024-01-11T02:37:42;-4.40;99.90
41668;DHT22;27356;50.920;5.350;2024-01-11T02:40:08;-4.30;99.90
41668;DHT22;27356;50.920;5.350;2024-01-11T02:42:35;-4.30;99.90
41668;DHT22;27356;50.920;5.350;2024-01-11T02:45:05;-4.20;99.90
41668;DHT22;27356;50.920;5.350;2024-01-11T02:47:31;-4.30;99.90
41668;DHT22;27356;50.920;5.350;2024-01-11T02:49:57;-4.40;99.90
41668;DHT22;27356;50.920;5.350;2024-01-11T02:52:23;-4.40;99.90
41668;DHT22;27356;50.920;5.350;2024-01-11T02:54:49;-4.60;99.90
41668;DHT22;27356;50.920;5.350;2024-01-11T02:57:15;-4.70;99.90
41668;DHT22;27356;50.920;5.350;2024-01-11T02:59:41;-4.80;99.90
41668;DHT22;27356;50.920;5.350;2024-01-11T03:02:07;-4.90;99.90
41668;DHT22;27356;50.920;5.350;2024-01-11T03:04:33;-4.90;99.90
41668;DHT22;27356;50.920;5.350;2024-01-11T03:06:59;-4.80;99.90
41668;DHT22;27356;50.920;5.350;2024-01-11T03:09:25;-4.50;99.90
41668;DHT22;27356;50.920;5.350;2024-01-11T03:11:50;-4.60;99.90
41668;DHT22;27356;50.920;5.350;2024-01-11T03:14:16;-4.70;99.90
41668;DHT22;27356;50.920;5.350;2024-01-11T03:16:42;-4.60;99.90
41668;DHT22;27356;50.920;5.350;2024-01-11T03:19:08;-4.60;99.90
41668;DHT22;27356;50.920;5.350;2024-01-11T03:21:34;-4.50;99.90
41668;DHT22;27356;50.920;5.350;2024-01-11T03:24:00;-4.50;99.90
41668;DHT22;27356;50.920;5.350;2024-01-11T03:26:26;-4.60;99.90
41668;DHT22;27356;50.920;5.350;2024-01-11T03:28:51;-4.60;99.90
41668;DHT22;27356;50.920;5.350;2024-01-11T03:31:17;-4.60;99.90
41668;DHT22;27356;50.920;5.350;2024-01-11T03:33:43;-4.60;99.90
41668;DHT22;27356;50.920;5.350;2024-01-11T03:36:10;-4.70;99.90
41668;DHT22;27356;50.920;5.350;2024-01-11T03:38:36;-4.60;99.90
41668;DHT22;27356;50.920;5.350;2024-01-11T03:41:07;-4.60;99.90
41668;DHT22;27356;50.920;5.350;2024-01-11T03:43:33;-4.70;99.90
41668;DHT22;27356;50.920;5.350;2024-01-11T03:45:58;-4.60;99.90
41668;DHT22;27356;50.920;5.350;2024-01-11T03:48:24;-4.70;99.90
41668;DHT22;27356;50.920;5.350;2024-01-11T03:50:50;-4.70;99.90
41668;DHT22;27356;50.920;5.350;2024-01-11T03:53:16;-4.60;99.90
41668;DHT22;27356;50.920;5.350;2024-01-11T03:55:42;-4.60;99.90
41668;DHT22;27356;50.920;5.350;2024-01-11T03:58:08;-4.60;99.90
41668;DHT22;27356;50.920;5.350;2024-01-11T04:00:34;-4.70;99.90
41668;DHT22;27356;50.920;5.350;2024-01-11T04:03:00;-4.80;99.90
41668;DHT22;27356;50.920;5.350;2024-01-11T04:05:27;-4.90;99.90
41668;DHT22;27356;50.920;5.350;2024-01-11T04:07:53;-4.90;99.90
41668;DHT22;27356;50.920;5.350;2024-01-11T04:10:20;-5.00;99.90
41668;DHT22;27356;50.920;5.350;2024-01-11T04:12:45;-5.00;99.90
41668;DHT22;27356;50.920;5.350;2024-01-11T04:15:15;-4.70;99.90
41668;DHT22;27356;50.920;5.350;2024-01-11T04:17:41;-4.60;99.90
41668;DHT22;27356;50.920;5.350;2024-01-11T04:20:07;-4.70;99.90
41668;DHT22;27356;50.920;5.350;2024-01-11T04:22:36;-4.70;99.90
41668;DHT22;27356;50.920;5.350;2024-01-11T04:25:02;-4.70;99.90
41668;DHT22;27356;50.920;5.350;2024-01-11T04:27:28;-4.90;99.90
41668;DHT22;27356;50.920;5.350;2024-01-11T04:29:54;-5.10;99.90
41668;DHT22;27356;50.920;5.350;2024-01-11T04:32:20;-5.00;99.90
41668;DHT22;27356;50.920;5.350;2024-01-11T04:34:45;-5.10;99.90
41668;DHT22;27356;50.920;5.350;2024-01-11T04:37:11;-5.10;99.90
41668;DHT22;27356;50.920;5.350;2024-01-11T04:39:37;-5.20;99.90
41668;DHT22;27356;50.920;5.350;2024-01-11T04:42:03;-5.20;99.90
41668;DHT22;27356;50.920;5.350;2024-01-11T04:44:29;-5.10;99.90
41668;DHT22;27356;50.920;5.350;2024-01-11T04:46:55;-5.00;99.90
41668;DHT22;27356;50.920;5.350;2024-01-11T04:49:21;-4.80;99.90
41668;DHT22;27356;50.920;5.350;2024-01-11T04:51:47;-4.70;99.90
41668;DHT22;27356;50.920;5.350;2024-01-11T04:54:12;-4.60;99.90
41668;DHT22;27356;50.920;5.350;2024-01-11T04:56:38;-4.60;99.90
41668;DHT22;27356;50.920;5.350;2024-01-11T04:59:04;-4.70;99.90
41668;DHT22;27356;50.920;5.350;2024-01-11T05:01:30;-4.70;99.90
41668;DHT22;27356;50.920;5.350;2024-01-11T05:03:56;-4.70;99.90
41668;DHT22;27356;50.920;5.350;2024-01-11T05:06:22;-4.80;99.90
41668;DHT22;27356;50.920;5.350;2024-01-11T05:08:50;-4.70;99.90
41668;DHT22;27356;50.920;5.350;2024-01-11T05:11:23;-4.80;99.90
41668;DHT22;27356;50.920;5.350;2024-01-11T05:13:51;-4.60;99.90
41668;DHT22;27356;50.920;5.350;2024-01-11T05:16:24;-4.60;99.90
41668;DHT22;27356;50.920;5.350;2024-01-11T05:18:54;-4.70;99.90
41668;DHT22;27356;50.920;5.350;2024-01-11T05:21:21;-4.60;99.90
41668;DHT22;27356;50.920;5.350;2024-01-11T05:23:47;-4.50;99.90
41668;DHT22;27356;50.920;5.350;2024-01-11T05:26:14;-4.60;99.90
41668;DHT22;27356;50.920;5.350;2024-01-11T05:28:41;-4.60;99.90
41668;DHT22;27356;50.920;5.350;2024-01-11T05:31:11;-4.80;99.90
41668;DHT22;27356;50.920;5.350;2024-01-11T05:33:38;-4.60;99.90
41668;DHT22;27356;50.920;5.350;2024-01-11T05:36:04;-4.60;99.90
41668;DHT22;27356;50.920;5.350;2024-01-11T05:38:31;-4.70;99.90
41668;DHT22;27356;50.920;5.350;2024-01-11T05:40:57;-4.70;99.90
41668;DHT22;27356;50.920;5.350;2024-01-11T05:43:23;-4.80;99.90
41668;DHT22;27356;50.920;5.350;2024-01-11T05:45:49;-4.90;99.90
41668;DHT22;27356;50.920;5.350;2024-01-11T05:48:16;-4.80;99.90
41668;DHT22;27356;50.920;5.350;2024-01-11T05:50:42;-4.90;99.90
41668;DHT22;27356;50.920;5.350;2024-01-11T05:53:08;-4.80;99.90
41668;DHT22;27356;50.920;5.350;2024-01-11T05:55:34;-4.80;99.90
41668;DHT22;27356;50.920;5.350;2024-01-11T05:58:00;-4.80;99.90
41668;DHT22;27356;50.920;5.350;2024-01-11T06:00:26;-4.80;99.90
41668;DHT22;27356;50.920;5.350;2024-01-11T06:02:52;-4.70;99.90
41668;DHT22;27356;50.920;5.350;2024-01-11T06:05:18;-4.90;99.90
41668;DHT22;27356;50.920;5.350;2024-01-11T06:07:44;-4.90;99.90
41668;DHT22;27356;50.920;5.350;2024-01-11T06:10:10;-4.80;99.90
41668;DHT22;27356;50.920;5.350;2024-01-11T06:12:36;-4.90;99.90
41668;DHT22;27356;50.920;5.350;2024-01-11T06:15:02;-4.80;99.90
41668;DHT22;27356;50.920;5.350;2024-01-11T06:17:28;-4.90;99.90
41668;DHT22;27356;50.920;5.350;2024-01-11T06:19:55;-4.90;99.90
41668;DHT22;27356;50.920;5.350;2024-01-11T06:22:21;-4.90;99.90
41668;DHT22;27356;50.920;5.350;2024-01-11T06:24:47;-4.90;99.90
41668;DHT22;27356;50.920;5.350;2024-01-11T06:27:13;-4.90;99.90
41668;DHT22;27356;50.920;5.350;2024-01-11T06:29:39;-4.90;99.90
41668;DHT22;27356;50.920;5.350;2024-01-11T06:32:05;-4.80;99.90
41668;DHT22;27356;50.920;5.350;2024-01-11T06:34:31;-4.70;99.90
41668;DHT22;27356;50.920;5.350;2024-01-11T06:36:57;-4.70;99.90
41668;DHT22;27356;50.920;5.350;2024-01-11T06:39:23;-4.90;99.90
41668;DHT22;27356;50.920;5.350;2024-01-11T06:41:49;-4.90;99.90
41668;DHT22;27356;50.920;5.350;2024-01-11T06:44:15;-5.00;99.90
41668;DHT22;27356;50.920;5.350;2024-01-11T06:46:40;-5.10;99.90
41668;DHT22;27356;50.920;5.350;2024-01-11T06:49:10;-5.20;99.90
41668;DHT22;27356;50.920;5.350;2024-01-11T06:51:35;-5.30;99.90
41668;DHT22;27356;50.920;5.350;2024-01-11T06:54:01;-5.30;99.90
41668;DHT22;27356;50.920;5.350;2024-01-11T06:56:27;-5.40;99.90
41668;DHT22;27356;50.920;5.350;2024-01-11T06:58:54;-5.30;99.90
41668;DHT22;27356;50.920;5.350;2024-01-11T07:01:20;-5.10;99.90
41668;DHT22;27356;50.920;5.350;2024-01-11T07:03:48;-5.10;99.90
41668;DHT22;27356;50.920;5.350;2024-01-11T07:06:15;-5.10;99.90
41668;DHT22;27356;50.920;5.350;2024-01-11T07:08:41;-5.00;99.90
41668;DHT22;27356;50.920;5.350;2024-01-11T07:11:07;-5.00;99.90
41668;DHT22;27356;50.920;5.350;2024-01-11T07:13:33;-5.10;99.90
41668;DHT22;27356;50.920;5.350;2024-01-11T07:15:59;-5.10;99.90
41668;DHT22;27356;50.920;5.350;2024-01-11T07:18:25;-5.10;99.90
41668;DHT22;27356;50.920;5.350;2024-01-11T07:20:52;-4.90;99.90
41668;DHT22;27356;50.920;5.350;2024-01-11T07:23:18;-4.80;99.90
41668;DHT22;27356;50.920;5.350;2024-01-11T07:25:44;-5.10;99.90
41668;DHT22;27356;50.920;5.350;2024-01-11T07:28:10;-5.20;99.90
41668;DHT22;27356;50.920;5.350;2024-01-11T07:30:36;-5.30;99.90
41668;DHT22;27356;50.920;5.350;2024-01-11T07:33:02;-5.50;99.90
41668;DHT22;27356;50.920;5.350;2024-01-11T07:35:28;-5.50;99.90
41668;DHT22;27356;50.920;5.350;2024-01-11T07:37:53;-5.50;99.90
41668;DHT22;27356;50.920;5.350;2024-01-11T07:40:19;-5.50;99.90
41668;DHT22;27356;50.920;5.350;2024-01-11T07:42:45;-5.40;99.90
41668;DHT22;27356;50.920;5.350;2024-01-11T07:45:11;-5.50;99.90
41668;DHT22;27356;50.920;5.350;2024-01-11T07:47:39;-5.30;99.90
41668;DHT22;27356;50.920;5.350;2024-01-11T07:50:06;-5.30;99.90
41668;DHT22;27356;50.920;5.350;2024-01-11T07:52:38;-5.40;99.90
41668;DHT22;27356;50.920;5.350;2024-01-11T07:55:07;-5.50;99.90
41668;DHT22;27356;50.920;5.350;2024-01-11T07:57:36;-5.40;99.90
41668;DHT22;27356;50.920;5.350;2024-01-11T08:00:05;-5.30;99.90
41668;DHT22;27356;50.920;5.350;2024-01-11T08:02:32;-5.30;99.90
41668;DHT22;27356;50.920;5.350;2024-01-11T08:04:58;-5.40;99.90
41668;DHT22;27356;50.920;5.350;2024-01-11T08:07:27;-5.30;99.90
41668;DHT22;27356;50.920;5.350;2024-01-11T08:09:54;-5.30;99.90
41668;DHT22;27356;50.920;5.350;2024-01-11T08:12:20;-5.30;99.90
41668;DHT22;27356;50.920;5.350;2024-01-11T08:15:01;-5.60;99.90
41668;DHT22;27356;50.920;5.350;2024-01-11T08:17:30;-5.60;99.90
41668;DHT22;27356;50.920;5.350;2024-01-11T08:19:56;-5.70;99.90
41668;DHT22;27356;50.920;5.350;2024-01-11T08:22:23;-5.50;99.90
41668;DHT22;27356;50.920;5.350;2024-01-11T08:24:49;-5.40;99.90
41668;DHT22;27356;50.920;5.350;2024-01-11T08:27:15;-5.50;99.90
41668;DHT22;27356;50.920;5.350;2024-01-11T08:29:43;-5.50;99.90
41668;DHT22;27356;50.920;5.350;2024-01-11T08:32:09;-5.40;99.90
41668;DHT22;27356;50.920;5.350;2024-01-11T08:34:35;-5.30;99.90
41668;DHT22;27356;50.920;5.350;2024-01-11T08:37:00;-5.30;99.90
41668;DHT22;27356;50.920;5.350;2024-01-11T08:39:26;-5.20;99.90
41668;DHT22;27356;50.920;5.350;2024-01-11T08:41:52;-5.20;99.90
41668;DHT22;27356;50.920;5.350;2024-01-11T08:44:19;-5.10;99.90
41668;DHT22;27356;50.920;5.350;2024-01-11T08:46:44;-5.10;99.90
41668;DHT22;27356;50.920;5.350;2024-01-11T08:49:10;-5.10;99.90
41668;DHT22;27356;50.920;5.350;2024-01-11T08:51:36;-5.10;99.90
41668;DHT22;27356;50.920;5.350;2024-01-11T08:54:02;-5.00;99.90
41668;DHT22;27356;50.920;5.350;2024-01-11T08:56:29;-4.90;99.90
41668;DHT22;27356;50.920;5.350;2024-01-11T08:58:55;-4.80;99.90
41668;DHT22;27356;50.920;5.350;2024-01-11T09:01:22;-4.50;99.90
41668;DHT22;27356;50.920;5.350;2024-01-11T09:03:48;-4.40;99.90
41668;DHT22;27356;50.920;5.350;2024-01-11T09:06:14;-4.40;99.90
41668;DHT22;27356;50.920;5.350;2024-01-11T09:08:39;-4.40;99.90
41668;DHT22;27356;50.920;5.350;2024-01-11T09:11:08;-4.50;99.90
41668;DHT22;27356;50.920;5.350;2024-01-11T09:13:36;-4.40;99.90
41668;DHT22;27356;50.920;5.350;2024-01-11T09:16:02;-4.40;99.90
41668;DHT22;27356;50.920;5.350;2024-01-11T09:18:28;-4.40;99.90
41668;DHT22;27356;50.920;5.350;2024-01-11T09:20:54;-4.50;99.90
41668;DHT22;27356;50.920;5.350;2024-01-11T09:23:21;-4.30;99.90
41668;DHT22;27356;50.920;5.350;2024-01-11T09:25:47;-4.20;99.90
41668;DHT22;27356;50.920;5.350;2024-01-11T09:28:13;-4.20;99.90
41668;DHT22;27356;50.920;5.350;2024-01-11T09:30:39;-4.10;99.90
41668;DHT22;27356;50.920;5.350;2024-01-11T09:33:05;-4.00;99.90
41668;DHT22;27356;50.920;5.350;2024-01-11T09:35:31;-3.90;99.90
41668;DHT22;27356;50.920;5.350;2024-01-11T09:37:57;-3.90;99.90
41668;DHT22;27356;50.920;5.350;2024-01-11T09:40:23;-3.80;99.90
41668;DHT22;27356;50.920;5.350;2024-01-11T09:42:49;-3.70;99.90
41668;DHT22;27356;50.920;5.350;2024-01-11T09:45:16;-3.60;99.90
41668;DHT22;27356;50.920;5.350;2024-01-11T09:47:44;-3.50;99.90
41668;DHT22;27356;50.920;5.350;2024-01-11T09:50:11;-3.50;99.90
41668;DHT22;27356;50.920;5.350;2024-01-11T09:52:49;-3.50;99.90
41668;DHT22;27356;50.920;5.350;2024-01-11T09:55:16;-3.50;99.90
41668;DHT22;27356;50.920;5.350;2024-01-11T09:57:45;-3.30;99.90
41668;DHT22;27356;50.920;5.350;2024-01-11T10:00:16;-3.20;99.90
41668;DHT22;27356;50.920;5.350;2024-01-11T10:02:48;-3.20;99.90
41668;DHT22;27356;50.920;5.350;2024-01-11T10:05:15;-3.20;99.90
41668;DHT22;27356;50.920;5.350;2024-01-11T10:07:41;-3.10;99.90
41668;DHT22;27356;50.920;5.350;2024-01-11T10:10:08;-3.20;99.90
41668;DHT22;27356;50.920;5.350;2024-01-11T10:12:35;-3.30;99.90
41668;DHT22;27356;50.920;5.350;2024-01-11T10:15:08;-3.30;99.90
41668;DHT22;27356;50.920;5.350;2024-01-11T10:17:43;-3.10;99.90
41668;DHT22;27356;50.920;5.350;2024-01-11T10:20:12;-2.80;99.90
41668;DHT22;27356;50.920;5.350;2024-01-11T10:22:42;-2.80;99.90
41668;DHT22;27356;50.920;5.350;2024-01-11T10:25:10;-2.90;99.90
41668;DHT22;27356;50.920;5.350;2024-01-11T10:27:38;-3.10;99.90
41668;DHT22;27356;50.920;5.350;2024-01-11T10:30:05;-2.80;99.90
41668;DHT22;27356;50.920;5.350;2024-01-11T10:32:33;-2.80;99.90
41668;DHT22;27356;50.920;5.350;2024-01-11T10:35:01;-2.70;99.90
41668;DHT22;27356;50.920;5.350;2024-01-11T10:37:31;-2.50;99.90
41668;DHT22;27356;50.920;5.350;2024-01-11T10:40:05;-2.50;99.90
41668;DHT22;27356;50.920;5.350;2024-01-11T10:42:50;-2.40;99.90
41668;DHT22;27356;50.920;5.350;2024-01-11T10:45:20;-2.20;99.90
41668;DHT22;27356;50.920;5.350;2024-01-11T10:48:01;-2.20;99.90
41668;DHT22;27356;50.920;5.350;2024-01-11T10:50:30;-2.10;99.90
41668;DHT22;27356;50.920;5.350;2024-01-11T10:56:01;-2.00;99.90
41668;DHT22;27356;50.920;5.350;2024-01-11T10:58:30;-2.10;99.90
41668;DHT22;27356;50.920;5.350;2024-01-11T11:00:57;-2.00;99.90
41668;DHT22;27356;50.920;5.350;2024-01-11T11:03:26;-2.00;99.90
41668;DHT22;27356;50.920;5.350;2024-01-11T11:05:55;-1.80;99.90
41668;DHT22;27356;50.920;5.350;2024-01-11T11:08:23;-1.70;99.90
41668;DHT22;27356;50.920;5.350;2024-01-11T11:10:54;-1.50;99.90
41668;DHT22;27356;50.920;5.350;2024-01-11T11:13:21;-1.40;99.90
41668;DHT22;27356;50.920;5.350;2024-01-11T11:15:48;-1.30;99.90
41668;DHT22;27356;50.920;5.350;2024-01-11T11:18:17;-1.20;99.90
41668;DHT22;27356;50.920;5.350;2024-01-11T11:20:44;-1.20;99.90
41668;DHT22;27356;50.920;5.350;2024-01-11T11:23:14;-1.00;99.90
41668;DHT22;27356;50.920;5.350;2024-01-11T11:25:40;-1.00;99.90
41668;DHT22;27356;50.920;5.350;2024-01-11T11:28:07;-1.00;99.90
41668;DHT22;27356;50.920;5.350;2024-01-11T11:30:37;-0.80;99.90
41668;DHT22;27356;50.920;5.350;2024-01-11T11:33:23;-0.90;99.90
41668;DHT22;27356;50.920;5.350;2024-01-11T11:35:53;-0.90;99.90
41668;DHT22;27356;50.920;5.350;2024-01-11T11:38:31;-0.60;99.90
41668;DHT22;27356;50.920;5.350;2024-01-11T11:40:59;-0.80;99.90
41668;DHT22;27356;50.920;5.350;2024-01-11T11:43:27;-0.60;99.90
41668;DHT22;27356;50.920;5.350;2024-01-11T11:45:53;-0.40;99.90
41668;DHT22;27356;50.920;5.350;2024-01-11T11:51:12;-0.40;99.90
41668;DHT22;27356;50.920;5.350;2024-01-11T11:53:41;-0.20;99.90
41668;DHT22;27356;50.920;5.350;2024-01-11T11:56:09;-0.30;99.90
41668;DHT22;27356;50.920;5.350;2024-01-11T11:58:36;-0.30;99.90
41668;DHT22;27356;50.920;5.350;2024-01-11T12:01:03;-0.40;99.90
41668;DHT22;27356;50.920;5.350;2024-01-11T12:03:37;-0.30;99.90
41668;DHT22;27356;50.920;5.350;2024-01-11T12:06:04;-0.30;99.90
41668;DHT22;27356;50.920;5.350;2024-01-11T12:08:31;-0.20;99.90
41668;DHT22;27356;50.920;5.350;2024-01-11T12:10:58;-0.30;99.90
41668;DHT22;27356;50.920;5.350;2024-01-11T12:13:26;-0.10;99.90
41668;DHT22;27356;50.920;5.350;2024-01-11T12:15:52;-0.10;99.90
41668;DHT22;27356;50.920;5.350;2024-01-11T12:18:18;0.00;99.90
41668;DHT22;27356;50.920;5.350;2024-01-11T12:20:45;0.10;99.90
41668;DHT22;27356;50.920;5.350;2024-01-11T12:23:11;0.10;99.90
41668;DHT22;27356;50.920;5.350;2024-01-11T12:25:40;0.20;99.90
41668;DHT22;27356;50.920;5.350;2024-01-11T12:28:06;0.20;99.90
41668;DHT22;27356;50.920;5.350;2024-01-11T12:30:32;0.30;99.90
41668;DHT22;27356;50.920;5.350;2024-01-11T12:32:59;0.30;99.90
41668;DHT22;27356;50.920;5.350;2024-01-11T12:35:30;0.30;99.90
41668;DHT22;27356;50.920;5.350;2024-01-11T12:38:01;0.30;99.90
41668;DHT22;27356;50.920;5.350;2024-01-11T12:40:32;0.50;99.90
41668;DHT22;27356;50.920;5.350;2024-01-11T12:42:59;0.50;99.90
41668;DHT22;27356;50.920;5.350;2024-01-11T12:45:25;0.60;99.90
41668;DHT22;27356;50.920;5.350;2024-01-11T12:47:52;0.50;99.90
41668;DHT22;27356;50.920;5.350;2024-01-11T12:50:20;0.50;99.90
41668;DHT22;27356;50.920;5.350;2024-01-11T12:52:46;0.40;99.90
41668;DHT22;27356;50.920;5.350;2024-01-11T12:55:19;0.40;99.90
41668;DHT22;27356;50.920;5.350;2024-01-11T12:57:45;0.50;99.90
41668;DHT22;27356;50.920;5.350;2024-01-11T13:00:14;0.50;99.90
41668;DHT22;27356;50.920;5.350;2024-01-11T13:02:42;0.60;99.90
41668;DHT22;27356;50.920;5.350;2024-01-11T13:05:12;0.70;99.90
41668;DHT22;27356;50.920;5.350;2024-01-11T13:07:38;0.80;99.90
41668;DHT22;27356;50.920;5.350;2024-01-11T13:10:04;0.70;99.90
41668;DHT22;27356;50.920;5.350;2024-01-11T13:12:31;0.70;99.90
41668;DHT22;27356;50.920;5.350;2024-01-11T13:14:57;0.90;99.90
41668;DHT22;27356;50.920;5.350;2024-01-11T13:17:23;0.70;99.90
41668;DHT22;27356;50.920;5.350;2024-01-11T13:19:48;0.70;99.90
41668;DHT22;27356;50.920;5.350;2024-01-11T13:22:15;0.80;99.90
41668;DHT22;27356;50.920;5.350;2024-01-11T13:24:41;0.70;99.90
41668;DHT22;27356;50.920;5.350;2024-01-11T13:27:07;0.80;99.90
41668;DHT22;27356;50.920;5.350;2024-01-11T13:29:32;0.80;99.90
41668;DHT22;27356;50.920;5.350;2024-01-11T13:31:58;0.80;99.90
41668;DHT22;27356;50.920;5.350;2024-01-11T13:34:24;0.70;99.90
41668;DHT22;27356;50.920;5.350;2024-01-11T13:36:50;0.70;99.90
41668;DHT22;27356;50.920;5.350;2024-01-11T13:39:16;0.80;99.90
41668;DHT22;27356;50.920;5.350;2024-01-11T13:41:43;0.80;99.90
41668;DHT22;27356;50.920;5.350;2024-01-11T13:44:10;0.80;99.90
41668;DHT22;27356;50.920;5.350;2024-01-11T13:46:37;1.10;99.90
41668;DHT22;27356;50.920;5.350;2024-01-11T13:49:03;1.10;99.90
41668;DHT22;27356;50.920;5.350;2024-01-11T13:51:30;1.20;99.90
41668;DHT22;27356;50.920;5.350;2024-01-11T13:53:58;1.10;99.90
41668;DHT22;27356;50.920;5.350;2024-01-11T13:56:26;1.20;99.90
41668;DHT22;27356;50.920;5.350;2024-01-11T13:58:52;1.00;99.90
41668;DHT22;27356;50.920;5.350;2024-01-11T14:01:18;1.20;99.90
41668;DHT22;27356;50.920;5.350;2024-01-11T14:03:44;1.20;99.90
41668;DHT22;27356;50.920;5.350;2024-01-11T14:06:10;1.20;99.90
41668;DHT22;27356;50.920;5.350;2024-01-11T14:08:36;1.10;99.90
41668;DHT22;27356;50.920;5.350;2024-01-11T14:11:03;1.20;99.90
41668;DHT22;27356;50.920;5.350;2024-01-11T14:13:29;1.20;99.90
41668;DHT22;27356;50.920;5.350;2024-01-11T14:15:55;1.10;99.90
41668;DHT22;27356;50.920;5.350;2024-01-11T14:18:22;1.10;99.90
41668;DHT22;27356;50.920;5.350;2024-01-11T14:20:48;1.00;99.90
41668;DHT22;27356;50.920;5.350;2024-01-11T14:23:14;1.10;99.90
41668;DHT22;27356;50.920;5.350;2024-01-11T14:25:40;1.10;99.90
41668;DHT22;27356;50.920;5.350;2024-01-11T14:28:06;1.00;99.90
41668;DHT22;27356;50.920;5.350;2024-01-11T14:30:33;1.00;99.90
41668;DHT22;27356;50.920;5.350;2024-01-11T14:32:59;0.90;99.90
41668;DHT22;27356;50.920;5.350;2024-01-11T14:35:25;0.90;99.90
41668;DHT22;27356;50.920;5.350;2024-01-11T14:37:50;1.00;99.90
41668;DHT22;27356;50.920;5.350;2024-01-11T14:40:18;1.30;99.90
41668;DHT22;27356;50.920;5.350;2024-01-11T14:42:44;1.30;99.90
41668;DHT22;27356;50.920;5.350;2024-01-11T14:45:10;1.20;99.90
41668;DHT22;27356;50.920;5.350;2024-01-11T14:47:36;0.90;99.90
41668;DHT22;27356;50.920;5.350;2024-01-11T14:50:03;1.00;99.90
41668;DHT22;27356;50.920;5.350;2024-01-11T14:52:31;0.90;99.90
41668;DHT22;27356;50.920;5.350;2024-01-11T14:54:57;1.00;99.90
41668;DHT22;27356;50.920;5.350;2024-01-11T14:57:23;1.10;99.90
41668;DHT22;27356;50.920;5.350;2024-01-11T14:59:49;1.30;99.90
41668;DHT22;27356;50.920;5.350;2024-01-11T15:02:15;1.20;99.90
41668;DHT22;27356;50.920;5.350;2024-01-11T15:04:41;1.10;99.90
41668;DHT22;27356;50.920;5.350;2024-01-11T15:07:08;1.00;99.90
41668;DHT22;27356;50.920;5.350;2024-01-11T15:09:35;1.10;99.90
41668;DHT22;27356;50.920;5.350;2024-01-11T15:12:01;1.00;99.90
41668;DHT22;27356;50.920;5.350;2024-01-11T15:14:28;0.90;99.90
41668;DHT22;27356;50.920;5.350;2024-01-11T15:16:54;0.80;99.90
41668;DHT22;27356;50.920;5.350;2024-01-11T15:19:20;0.80;99.90
41668;DHT22;27356;50.920;5.350;2024-01-11T15:21:57;0.80;99.90
41668;DHT22;27356;50.920;5.350;2024-01-11T15:24:33;0.80;99.90
41668;DHT22;27356;50.920;5.350;2024-01-11T15:27:01;0.70;99.90
41668;DHT22;27356;50.920;5.350;2024-01-11T15:29:28;0.90;99.90
41668;DHT22;27356;50.920;5.350;2024-01-11T15:31:56;0.90;99.90
41668;DHT22;27356;50.920;5.350;2024-01-11T15:34:22;0.80;99.90
41668;DHT22;27356;50.920;5.350;2024-01-11T15:36:48;0.50;99.90
41668;DHT22;27356;50.920;5.350;2024-01-11T15:39:13;0.50;99.90